createdAt,value
2022-10-09T00:01:28.108Z,9.20
2022-10-09T00:03:57.749Z,9.23
2022-10-09T00:06:30.132Z,9.17
2022-10-09T00:08:58.675Z,9.24
2022-10-09T00:11:29.534Z,9.25
2022-10-09T00:13:58.653Z,9.14
2022-10-09T00:16:27.579Z,9.07
2022-10-09T00:18:56.464Z,8.89
2022-10-09T00:21:26.452Z,8.91
2022-10-09T00:23:59.024Z,8.82
2022-10-09T00:26:28.004Z,8.85
2022-10-09T00:28:57.037Z,8.77
2022-10-09T00:31:25.879Z,8.76
2022-10-09T00:33:54.365Z,8.66
2022-10-09T00:36:24.537Z,8.52
2022-10-09T00:38:54.648Z,8.42
2022-10-09T00:41:26.858Z,8.33
2022-10-09T00:43:57.417Z,8.20
2022-10-09T00:46:31.446Z,7.98
2022-10-09T00:49:10.427Z,8.04
2022-10-09T00:51:39.236Z,7.81
2022-10-09T00:54:13.043Z,7.99
2022-10-09T00:56:43.046Z,8.06
2022-10-09T00:59:12.879Z,7.95
2022-10-09T01:01:42.366Z,7.89
2022-10-09T01:04:10.741Z,7.83
2022-10-09T01:06:55.096Z,7.72
2022-10-09T01:09:28.870Z,7.74
2022-10-09T01:12:05.548Z,7.70
2022-10-09T01:14:39.717Z,7.87
2022-10-09T01:17:16.643Z,7.64
2022-10-09T01:19:56.425Z,7.61
2022-10-09T01:22:41.246Z,7.50
2022-10-09T01:25:12.509Z,7.60
2022-10-09T01:27:42.502Z,7.57
2022-10-09T01:30:13.602Z,7.87
2022-10-09T01:32:45.491Z,7.76
2022-10-09T01:35:15.692Z,7.73
2022-10-09T01:37:47.052Z,7.88
2022-10-09T01:40:18.396Z,8.03
2022-10-09T01:42:48.428Z,7.78
2022-10-09T01:45:17.916Z,7.91
2022-10-09T01:47:46.483Z,7.78
2022-10-09T01:50:23.142Z,7.80
2022-10-09T01:52:54.506Z,7.78
2022-10-09T01:55:37.396Z,7.78
2022-10-09T01:58:16.408Z,7.61
2022-10-09T02:00:48.353Z,7.65
2022-10-09T02:03:17.810Z,7.73
2022-10-09T02:05:49.601Z,7.76
2022-10-09T02:08:20.313Z,7.70
2022-10-09T02:10:50.712Z,7.59
2022-10-09T02:13:22.707Z,7.61
2022-10-09T02:15:54.839Z,7.69
2022-10-09T02:18:30.778Z,7.62
2022-10-09T02:21:04.296Z,7.34
2022-10-09T02:23:33.227Z,7.50
2022-10-09T02:26:01.636Z,7.35
2022-10-09T02:28:31.668Z,7.36
2022-10-09T02:31:05.445Z,7.36
2022-10-09T02:33:34.726Z,7.38
2022-10-09T02:36:04.414Z,7.40
2022-10-09T02:38:32.570Z,7.27
2022-10-09T02:41:01.418Z,7.17
2022-10-09T02:43:31.349Z,7.29
2022-10-09T02:45:59.588Z,7.25
2022-10-09T02:48:27.739Z,7.15
2022-10-09T02:50:56.103Z,7.11
2022-10-09T02:53:24.673Z,7.12
2022-10-09T02:55:53.060Z,7.10
2022-10-09T02:58:21.516Z,7.17
2022-10-09T03:00:51.985Z,7.16
2022-10-09T03:03:21.251Z,7.38
2022-10-09T03:05:49.659Z,7.16
2022-10-09T03:08:18.935Z,7.13
2022-10-09T03:10:47.475Z,7.05
2022-10-09T03:13:15.595Z,6.99
2022-10-09T03:15:43.948Z,6.88
2022-10-09T03:18:13.615Z,6.99
2022-10-09T03:20:42.019Z,6.97
2022-10-09T03:23:10.328Z,7.09
2022-10-09T03:25:38.465Z,7.19
2022-10-09T03:28:06.637Z,7.15
2022-10-09T03:30:43.023Z,7.21
2022-10-09T03:33:11.244Z,7.15
2022-10-09T03:35:41.986Z,7.15
2022-10-09T03:38:10.181Z,7.05
2022-10-09T03:40:38.523Z,6.95
2022-10-09T03:43:06.776Z,6.92
2022-10-09T03:45:35.495Z,6.92
2022-10-09T03:48:03.605Z,6.91
2022-10-09T03:50:32.019Z,6.77
2022-10-09T03:53:01.649Z,6.70
2022-10-09T03:55:29.888Z,6.74
2022-10-09T03:57:58.139Z,6.66
2022-10-09T04:00:26.690Z,6.64
2022-10-09T04:02:54.849Z,6.58
2022-10-09T04:05:23.787Z,6.58
2022-10-09T04:07:51.950Z,6.58
2022-10-09T04:10:21.530Z,6.54
2022-10-09T04:12:49.891Z,6.62
2022-10-09T04:15:18.461Z,6.60
2022-10-09T04:17:46.631Z,6.49
2022-10-09T04:20:14.761Z,6.44
2022-10-09T04:22:42.935Z,6.54
2022-10-09T04:25:11.122Z,6.52
2022-10-09T04:27:40.826Z,6.52
2022-10-09T04:30:10.912Z,6.58
2022-10-09T04:33:05.507Z,6.76
2022-10-09T04:35:35.210Z,7.10
2022-10-09T04:38:03.244Z,7.24
2022-10-09T04:40:31.415Z,7.30
2022-10-09T04:43:00.931Z,7.29
2022-10-09T04:45:29.653Z,7.26
2022-10-09T04:47:57.776Z,7.35
2022-10-09T04:50:26.198Z,7.47
2022-10-09T04:53:00.146Z,7.39
2022-10-09T04:55:28.415Z,7.53
2022-10-09T04:57:56.623Z,7.45
2022-10-09T05:00:26.364Z,7.53
2022-10-09T05:02:54.779Z,7.65
2022-10-09T05:05:23.589Z,7.43
2022-10-09T05:07:52.093Z,7.31
2022-10-09T05:10:20.342Z,7.14
2022-10-09T05:12:48.577Z,7.08
2022-10-09T05:15:17.019Z,6.99
2022-10-09T05:17:46.496Z,6.85
2022-10-09T05:20:14.697Z,6.69
2022-10-09T05:22:45.186Z,6.70
2022-10-09T05:25:13.586Z,6.64
2022-10-09T05:27:42.022Z,6.70
2022-10-09T05:30:11.585Z,6.76
2022-10-09T05:32:39.698Z,6.94
2022-10-09T05:35:10.396Z,7.09
2022-10-09T05:37:38.539Z,7.37
2022-10-09T05:40:08.135Z,7.52
2022-10-09T05:42:36.563Z,7.58
2022-10-09T05:45:05.186Z,7.79
2022-10-09T05:47:33.269Z,7.77
2022-10-09T05:50:01.595Z,7.69
2022-10-09T05:52:31.290Z,7.61
2022-10-09T05:54:59.918Z,7.52
2022-10-09T05:57:29.249Z,7.57
2022-10-09T05:59:57.471Z,7.76
2022-10-09T06:02:26.128Z,7.95
2022-10-09T06:04:54.233Z,8.15
2022-10-09T06:07:22.429Z,7.85
2022-10-09T06:09:52.067Z,8.09
2022-10-09T06:12:20.085Z,7.93
2022-10-09T06:14:48.121Z,7.95
2022-10-09T06:17:16.342Z,7.85
2022-10-09T06:19:44.568Z,8.09
2022-10-09T06:22:12.949Z,8.20
2022-10-09T06:24:41.169Z,8.39
2022-10-09T06:27:13.192Z,8.67
2022-10-09T06:29:41.578Z,8.96
2022-10-09T06:32:09.929Z,9.21
2022-10-09T06:34:38.202Z,9.37
2022-10-09T06:37:06.285Z,9.63
2022-10-09T06:39:34.535Z,9.77
2022-10-09T06:42:04.123Z,9.91
2022-10-09T06:44:44.541Z,10.03
2022-10-09T06:47:12.710Z,10.26
2022-10-09T06:49:41.109Z,10.48
2022-10-09T06:52:09.698Z,10.54
2022-10-09T06:54:38.238Z,10.71
2022-10-09T06:57:06.379Z,10.70
2022-10-09T06:59:34.526Z,11.36
2022-10-09T07:02:04.661Z,17.52
2022-10-09T07:04:32.846Z,23.03
2022-10-09T07:07:01.262Z,26.46
2022-10-09T07:09:29.466Z,28.31
2022-10-09T07:11:57.703Z,29.16
2022-10-09T07:14:26.264Z,28.44
2022-10-09T07:16:54.805Z,28.37
2022-10-09T07:19:24.527Z,28.19
2022-10-09T07:21:53.047Z,27.55
2022-10-09T07:24:21.444Z,29.41
2022-10-09T07:26:50.108Z,26.24
2022-10-09T07:29:19.727Z,28.01
2022-10-09T07:31:49.938Z,28.49
2022-10-09T07:34:18.593Z,29.13
2022-10-09T07:36:48.207Z,29.04
2022-10-09T07:39:18.987Z,29.37
2022-10-09T07:41:47.789Z,28.90
2022-10-09T07:44:16.150Z,30.39
2022-10-09T07:46:44.445Z,31.19
2022-10-09T07:49:12.771Z,31.38
2022-10-09T07:51:40.731Z,32.82
2022-10-09T07:54:10.425Z,33.85
2022-10-09T07:56:39.136Z,34.08
2022-10-09T07:59:12.783Z,36.20
2022-10-09T08:01:42.213Z,33.83
2022-10-09T08:04:10.821Z,32.93
2022-10-09T08:06:39.028Z,34.03
2022-10-09T08:09:08.313Z,32.06
2022-10-09T08:11:40.859Z,33.08
2022-10-09T08:14:18.082Z,32.57
2022-10-09T08:16:47.943Z,34.90
2022-10-09T08:19:16.632Z,33.35
2022-10-09T08:21:45.010Z,31.21
2022-10-09T08:24:13.432Z,30.24
2022-10-09T08:26:44.314Z,31.51
2022-10-09T08:29:16.195Z,31.74
2022-10-09T08:31:44.629Z,32.25
2022-10-09T08:34:13.014Z,30.43
2022-10-09T08:36:41.212Z,31.67
2022-10-09T08:39:09.439Z,30.58
2022-10-09T08:41:46.439Z,31.30
2022-10-09T08:44:20.268Z,30.47
2022-10-09T08:46:58.346Z,32.69
2022-10-09T08:49:32.466Z,28.11
2022-10-09T08:52:13.995Z,25.50
2022-10-09T08:54:42.465Z,25.90
2022-10-09T09:00:16.357Z,23.65
2022-10-09T09:03:02.895Z,25.52
2022-10-09T09:05:40.954Z,27.85
2022-10-09T09:08:27.471Z,29.41
2022-10-09T09:11:12.295Z,30.66
2022-10-09T09:13:51.170Z,31.54
2022-10-09T09:16:29.971Z,30.85
2022-10-09T09:19:14.333Z,31.76
2022-10-09T09:21:49.082Z,30.83
2022-10-09T09:24:21.261Z,29.77
2022-10-09T09:26:51.844Z,29.92
2022-10-09T09:29:24.854Z,31.84
2022-10-09T09:31:58.477Z,29.58
2022-10-09T09:34:35.760Z,28.55
2022-10-09T09:37:04.083Z,28.29
2022-10-09T09:40:24.300Z,26.99
2022-10-09T09:42:23.188Z,26.80
2022-10-09T09:44:59.070Z,26.73
2022-10-09T09:47:34.699Z,26.74
2022-10-09T09:50:04.903Z,27.33
2022-10-09T09:52:38.837Z,28.25
2022-10-09T09:55:08.010Z,25.03
2022-10-09T09:57:41.372Z,23.72
2022-10-09T10:00:20.813Z,23.86
2022-10-09T10:02:49.471Z,25.17
2022-10-09T10:05:23.207Z,25.46
2022-10-09T10:07:51.998Z,23.80
2022-10-09T10:10:25.588Z,23.88
2022-10-09T10:12:58.257Z,22.77
2022-10-09T10:15:29.540Z,22.48
2022-10-09T10:18:03.295Z,22.66
2022-10-09T10:20:33.306Z,23.55
2022-10-09T10:23:02.226Z,22.21
2022-10-09T10:25:34.834Z,22.11
2022-10-09T10:28:07.068Z,20.35
2022-10-09T10:31:04.372Z,18.05
2022-10-09T10:33:35.368Z,18.87
2022-10-09T10:36:04.290Z,22.47
2022-10-09T10:38:37.070Z,21.41
2022-10-09T10:41:13.860Z,23.18
2022-10-09T10:43:45.097Z,24.60
2022-10-09T10:46:24.076Z,25.01
2022-10-09T10:48:52.423Z,24.24
2022-10-09T10:51:52.159Z,22.34
2022-10-09T10:54:31.745Z,21.52
2022-10-09T10:57:08.877Z,23.29
2022-10-09T10:59:40.857Z,23.03
2022-10-09T11:02:32.679Z,22.44
2022-10-09T11:05:13.866Z,23.99
2022-10-09T11:07:51.384Z,22.07
2022-10-09T11:10:29.156Z,22.93
2022-10-09T11:13:02.704Z,21.34
2022-10-09T11:15:38.701Z,23.18
2022-10-09T11:18:25.815Z,24.00
2022-10-09T11:21:06.677Z,23.95
2022-10-09T11:23:49.448Z,23.29
2022-10-09T11:26:27.149Z,22.42
2022-10-09T11:29:02.116Z,22.96
2022-10-09T11:31:36.681Z,22.89
2022-10-09T11:34:13.601Z,22.98
2022-10-09T11:36:44.096Z,22.90
2022-10-09T11:39:18.166Z,23.23
2022-10-09T11:41:48.796Z,21.44
2022-10-09T11:44:35.814Z,22.60
2022-10-09T11:47:11.554Z,23.09
2022-10-09T11:49:55.061Z,22.77
2022-10-09T11:52:31.623Z,21.64
2022-10-09T11:55:09.946Z,22.48
2022-10-09T11:57:38.471Z,22.92
2022-10-09T12:00:10.638Z,23.05
2022-10-09T12:02:39.727Z,22.95
2022-10-09T12:05:19.603Z,23.01
2022-10-09T12:07:48.175Z,23.41
2022-10-09T12:10:34.802Z,20.87
2022-10-09T12:13:05.831Z,21.60
2022-10-09T12:15:40.922Z,22.36
2022-10-09T12:18:18.270Z,22.19
2022-10-09T12:20:50.498Z,21.27
2022-10-09T12:23:31.059Z,20.87
2022-10-09T12:26:03.731Z,20.53
2022-10-09T12:28:36.863Z,20.08
2022-10-09T12:31:16.825Z,20.41
2022-10-09T12:33:50.673Z,20.91
2022-10-09T12:36:26.544Z,21.10
2022-10-09T12:39:00.080Z,20.99
2022-10-09T12:41:38.168Z,20.79
2022-10-09T12:44:23.486Z,20.52
2022-10-09T12:46:58.815Z,19.23
2022-10-09T12:49:33.508Z,20.44
2022-10-09T12:52:19.455Z,20.61
2022-10-09T12:54:53.533Z,21.12
2022-10-09T12:57:31.327Z,20.86
2022-10-09T13:00:04.932Z,18.73
2022-10-09T13:02:36.799Z,19.80
2022-10-09T13:05:06.209Z,20.07
2022-10-09T13:07:35.793Z,20.39
2022-10-09T13:10:08.342Z,21.06
2022-10-09T13:12:36.594Z,20.12
2022-10-09T13:15:06.946Z,19.95
2022-10-09T13:17:38.468Z,20.28
2022-10-09T13:20:26.907Z,20.65
2022-10-09T13:22:59.274Z,18.87
2022-10-09T13:25:31.163Z,19.00
2022-10-09T13:27:59.955Z,20.49
2022-10-09T13:30:54.502Z,19.42
2022-10-09T13:33:23.323Z,19.69
2022-10-09T13:35:51.591Z,20.76
2022-10-09T13:38:23.981Z,20.36
2022-10-09T13:40:54.063Z,18.79
2022-10-09T13:43:26.673Z,17.98
2022-10-09T13:45:55.820Z,19.31
2022-10-09T13:48:26.986Z,18.66
2022-10-09T13:50:59.334Z,19.26
2022-10-09T13:53:29.763Z,20.29
2022-10-09T13:56:00.821Z,19.24
2022-10-09T13:58:31.500Z,17.73
2022-10-09T14:01:00.469Z,18.48
2022-10-09T14:03:29.968Z,17.27
2022-10-09T14:06:04.613Z,18.43
2022-10-09T14:08:36.636Z,19.84
2022-10-09T14:11:06.779Z,20.14
2022-10-09T14:13:36.173Z,19.61
2022-10-09T14:16:06.325Z,18.45
2022-10-09T14:18:35.757Z,19.27
2022-10-09T14:21:14.650Z,19.92
2022-10-09T14:23:46.535Z,19.68
2022-10-09T14:26:14.888Z,18.95
2022-10-09T14:28:44.169Z,19.47
2022-10-09T14:31:14.629Z,19.74
2022-10-09T14:33:45.253Z,20.31
2022-10-09T14:36:16.999Z,20.16
2022-10-09T14:38:50.181Z,19.71
2022-10-09T14:41:20.547Z,19.81
2022-10-09T14:43:55.734Z,18.52
2022-10-09T14:46:27.330Z,19.24
2022-10-09T14:48:56.905Z,19.74
2022-10-09T14:51:28.159Z,18.81
2022-10-09T14:53:59.117Z,18.18
2022-10-09T14:56:28.952Z,18.96
2022-10-09T14:59:01.192Z,19.39
2022-10-09T15:01:32.714Z,20.05
2022-10-09T15:04:02.190Z,20.09
2022-10-09T15:06:30.826Z,20.45
2022-10-09T15:09:05.568Z,20.55
2022-10-09T15:11:35.913Z,20.26
2022-10-09T15:14:06.614Z,19.06
2022-10-09T15:16:37.365Z,18.15
2022-10-09T15:19:06.241Z,17.91
2022-10-09T15:21:36.395Z,18.15
2022-10-09T15:24:07.286Z,18.77
2022-10-09T15:26:37.021Z,19.10
2022-10-09T15:29:08.319Z,19.11
2022-10-09T15:31:40.036Z,18.48
2022-10-09T15:34:11.796Z,19.00
2022-10-09T15:36:44.509Z,19.06
2022-10-09T15:39:15.404Z,18.52
2022-10-09T15:41:45.271Z,18.48
2022-10-09T15:44:18.655Z,18.64
2022-10-09T15:46:49.784Z,18.77
2022-10-09T15:49:18.955Z,18.56
2022-10-09T15:51:48.935Z,18.38
2022-10-09T15:54:19.515Z,17.98
2022-10-09T15:56:49.137Z,17.53
2022-10-09T15:59:18.312Z,17.04
2022-10-09T16:01:46.697Z,16.56
2022-10-09T16:04:16.452Z,16.17
2022-10-09T16:06:46.776Z,15.77
2022-10-09T16:09:16.917Z,15.41
2022-10-09T16:11:47.450Z,15.11
2022-10-09T16:14:15.827Z,14.81
2022-10-09T16:16:46.083Z,14.65
2022-10-09T16:19:15.991Z,14.51
2022-10-09T16:21:45.660Z,14.25
2022-10-09T16:24:13.908Z,14.13
2022-10-09T16:26:42.784Z,13.98
2022-10-09T16:29:14.946Z,13.86
2022-10-09T16:31:45.309Z,13.75
2022-10-09T16:34:16.095Z,13.63
2022-10-09T16:36:46.386Z,13.44
2022-10-09T16:39:14.803Z,13.32
2022-10-09T16:41:43.574Z,13.35
2022-10-09T16:44:17.036Z,13.09
2022-10-09T16:46:46.064Z,12.95
2022-10-09T16:49:21.273Z,12.88
2022-10-09T16:51:53.115Z,12.77
2022-10-09T16:54:21.341Z,12.73
2022-10-09T16:56:50.478Z,12.68
2022-10-09T16:59:21.854Z,12.30
2022-10-09T17:01:52.392Z,12.32
2022-10-09T17:04:22.939Z,12.11
2022-10-09T17:06:52.691Z,12.07
2022-10-09T17:09:22.067Z,11.94
2022-10-09T17:11:50.599Z,11.82
2022-10-09T17:14:20.409Z,11.77
2022-10-09T17:16:49.077Z,11.83
2022-10-09T17:19:17.773Z,11.79
2022-10-09T17:21:46.448Z,11.47
2022-10-09T17:24:16.280Z,11.24
2022-10-09T17:26:46.340Z,11.32
2022-10-09T17:29:16.244Z,11.28
2022-10-09T17:31:47.845Z,11.20
2022-10-09T17:34:16.407Z,11.10
2022-10-09T17:36:46.268Z,11.06
2022-10-09T17:39:17.485Z,11.04
2022-10-09T17:41:47.473Z,10.88
2022-10-09T17:44:17.764Z,10.85
2022-10-09T17:46:47.441Z,10.72
2022-10-09T17:49:16.605Z,10.72
2022-10-09T17:51:45.166Z,10.55
2022-10-09T17:54:17.036Z,10.63
2022-10-09T17:56:47.262Z,10.38
2022-10-09T17:59:17.383Z,10.47
2022-10-09T18:01:48.782Z,10.32
2022-10-09T18:04:18.237Z,10.35
2022-10-09T18:06:47.854Z,10.18
2022-10-09T18:09:17.752Z,10.00
2022-10-09T18:11:47.344Z,9.92
2022-10-09T18:14:17.131Z,9.78
2022-10-09T18:16:47.267Z,9.97
2022-10-09T18:19:19.913Z,9.90
2022-10-09T18:21:50.535Z,10.00
2022-10-09T18:24:19.522Z,9.78
2022-10-09T18:26:48.165Z,9.96
2022-10-09T18:29:16.376Z,9.95
2022-10-09T18:31:45.780Z,9.79
2022-10-09T18:34:16.522Z,9.63
2022-10-09T18:36:46.266Z,9.57
2022-10-09T18:39:16.719Z,9.58
2022-10-09T18:41:47.109Z,9.54
2022-10-09T18:44:19.933Z,9.39
2022-10-09T18:46:50.574Z,9.29
2022-10-09T18:49:26.296Z,9.44
2022-10-09T18:51:55.904Z,9.45
2022-10-09T18:54:26.923Z,9.40
2022-10-09T18:56:56.047Z,9.16
2022-10-09T18:59:25.826Z,9.24
2022-10-09T19:01:54.161Z,9.18
2022-10-09T19:04:24.962Z,9.17
2022-10-09T19:06:55.550Z,9.13
2022-10-09T19:09:23.931Z,9.18
2022-10-09T19:11:53.503Z,9.22
2022-10-09T19:14:22.271Z,9.18
2022-10-09T19:16:50.797Z,8.83
2022-10-09T19:19:19.320Z,8.80
2022-10-09T19:21:50.769Z,8.93
2022-10-09T19:24:20.901Z,8.81
2022-10-09T19:26:50.670Z,8.60
2022-10-09T19:29:19.155Z,8.54
2022-10-09T19:31:50.462Z,8.58
2022-10-09T19:34:19.828Z,8.55
2022-10-09T19:36:52.387Z,8.50
2022-10-09T19:39:22.765Z,8.47
2022-10-09T19:41:52.943Z,8.53
2022-10-09T19:44:22.466Z,8.51
2022-10-09T19:46:52.112Z,8.45
2022-10-09T19:49:21.453Z,8.22
2022-10-09T19:51:51.438Z,8.31
2022-10-09T19:54:21.041Z,8.41
2022-10-09T19:56:50.212Z,8.38
2022-10-09T19:59:18.621Z,8.30
2022-10-09T20:01:48.461Z,8.30
2022-10-09T20:04:17.409Z,8.35
2022-10-09T20:06:47.676Z,8.13
2022-10-09T20:09:18.654Z,8.24
2022-10-09T20:11:48.303Z,8.26
2022-10-09T20:14:16.655Z,8.17
2022-10-09T20:16:46.128Z,8.10
2022-10-09T20:19:14.387Z,8.20
2022-10-09T20:21:42.335Z,8.18
2022-10-09T20:24:10.927Z,8.23
2022-10-09T20:26:43.322Z,8.22
2022-10-09T20:29:12.174Z,8.21
2022-10-09T20:31:41.393Z,8.12
2022-10-09T20:34:10.149Z,8.11
2022-10-09T20:36:40.459Z,8.21
2022-10-09T20:39:11.642Z,8.12
2022-10-09T20:41:43.148Z,8.20
2022-10-09T20:44:13.308Z,8.00
2022-10-09T20:46:42.787Z,7.92
2022-10-09T20:49:14.057Z,7.86
2022-10-09T20:51:43.754Z,7.81
2022-10-09T20:54:18.518Z,7.72
2022-10-09T20:56:49.852Z,7.85
2022-10-09T20:59:19.701Z,7.86
2022-10-09T21:02:08.212Z,7.74
2022-10-09T21:04:37.634Z,7.71
2022-10-09T21:07:06.146Z,7.62
2022-10-09T21:09:34.935Z,7.66
2022-10-09T21:14:59.697Z,7.68
2022-10-09T21:17:28.259Z,7.65
2022-10-09T21:19:58.195Z,7.70
2022-10-09T21:22:27.151Z,7.61
2022-10-09T21:24:55.912Z,7.58
2022-10-09T21:27:24.636Z,7.59
2022-10-09T21:29:53.067Z,7.77
2022-10-09T21:32:23.403Z,7.94
2022-10-09T21:34:52.399Z,8.06
2022-10-09T21:37:22.281Z,8.10
2022-10-09T21:39:51.616Z,8.36
2022-10-09T21:42:19.884Z,8.57
2022-10-09T21:44:49.059Z,8.40
2022-10-09T21:47:19.552Z,8.65
2022-10-09T21:49:51.007Z,8.68
2022-10-09T21:52:19.258Z,8.62
2022-10-09T21:54:47.897Z,8.77
2022-10-09T21:57:16.297Z,9.19
2022-10-09T21:59:44.680Z,8.89
2022-10-09T22:02:13.056Z,9.14
2022-10-09T22:04:41.414Z,9.01
2022-10-09T22:07:11.479Z,9.52
2022-10-09T22:09:40.211Z,9.11
2022-10-09T22:12:08.853Z,9.55
2022-10-09T22:14:37.591Z,9.64
2022-10-09T22:17:06.322Z,9.56
2022-10-09T22:19:34.746Z,9.37
2022-10-09T22:22:03.182Z,9.77
2022-10-09T22:24:33.137Z,9.72
2022-10-09T22:27:01.627Z,9.46
2022-10-09T22:29:30.000Z,9.33
2022-10-09T22:31:58.565Z,9.36
2022-10-09T22:34:26.963Z,9.31
2022-10-09T22:36:55.401Z,9.43
2022-10-09T22:39:24.234Z,9.24
2022-10-09T22:41:54.101Z,9.39
2022-10-09T22:44:22.609Z,9.65
2022-10-09T22:46:51.919Z,9.58
2022-10-09T22:49:20.418Z,9.74
2022-10-09T22:51:48.825Z,9.65
2022-10-09T22:54:19.023Z,9.67
2022-10-09T22:56:47.767Z,9.81
2022-10-09T22:59:19.389Z,9.70
2022-10-09T23:01:50.143Z,9.69
2022-10-09T23:04:20.391Z,9.53
2022-10-09T23:06:52.441Z,9.67
2022-10-09T23:09:21.835Z,9.40
2022-10-09T23:11:51.847Z,9.34
2022-10-09T23:14:21.694Z,9.16
2022-10-09T23:16:50.303Z,9.15
2022-10-09T23:19:19.091Z,9.10
2022-10-09T23:21:48.299Z,8.85
2022-10-09T23:24:18.054Z,9.29
2022-10-09T23:26:47.751Z,9.11
2022-10-09T23:29:18.095Z,8.98
2022-10-09T23:31:49.683Z,9.15
2022-10-09T23:34:18.256Z,9.12
2022-10-09T23:36:46.667Z,9.20
2022-10-09T23:39:15.115Z,9.45
2022-10-09T23:41:43.614Z,9.09
2022-10-09T23:44:12.112Z,9.25
2022-10-09T23:46:41.473Z,9.04
2022-10-09T23:49:12.092Z,9.13
2022-10-09T23:51:41.094Z,9.01
2022-10-09T23:54:10.039Z,9.27
2022-10-09T23:56:38.451Z,9.27
2022-10-09T23:59:08.056Z,9.34
